createdAt,value
2018-11-22T00:02:30.768Z,27.10
2018-11-22T00:04:57.706Z,28.87
2018-11-22T00:07:26.275Z,29.47
2018-11-22T00:10:14.529Z,29.43
2018-11-22T00:12:43.206Z,28.00
2018-11-22T00:15:13.601Z,27.47
2018-11-22T00:18:01.874Z,27.90
2018-11-22T00:20:30.530Z,30.17
2018-11-22T00:22:59.249Z,28.73
2018-11-22T00:25:27.812Z,30.73
2018-11-22T00:28:16.058Z,29.40
2018-11-22T00:30:44.732Z,28.67
2018-11-22T00:33:32.972Z,29.67
2018-11-22T00:36:01.702Z,29.27
2018-11-22T00:38:30.381Z,28.40
2018-11-22T00:40:59.033Z,28.70
2018-11-22T00:43:47.030Z,29.80
2018-11-22T00:46:15.732Z,30.07
2018-11-22T00:48:44.407Z,29.73
2018-11-22T00:51:32.694Z,28.43
2018-11-22T00:54:01.429Z,29.90
2018-11-22T00:56:30.389Z,29.83
2018-11-22T00:59:18.804Z,29.77
2018-11-22T01:01:47.344Z,29.40
2018-11-22T01:04:16.045Z,30.33
2018-11-22T01:06:44.714Z,31.27
2018-11-22T01:09:32.979Z,31.60
2018-11-22T01:12:01.739Z,29.53
2018-11-22T01:14:30.359Z,29.70
2018-11-22T01:16:58.992Z,29.43
2018-11-22T01:19:46.956Z,30.67
2018-11-22T01:22:15.795Z,29.87
2018-11-22T01:24:44.418Z,32.37
2018-11-22T01:27:32.687Z,31.90
2018-11-22T01:30:01.375Z,30.70
2018-11-22T01:32:32.567Z,30.57
2018-11-22T01:35:21.499Z,31.47
2018-11-22T01:37:50.242Z,32.03
2018-11-22T01:40:19.983Z,31.63
2018-11-22T01:43:08.235Z,31.27
2018-11-22T01:45:36.988Z,30.67
2018-11-22T01:48:05.719Z,31.93
2018-11-22T01:50:34.347Z,31.87
2018-11-22T01:53:22.599Z,32.57
2018-11-22T01:55:51.230Z,32.30
2018-11-22T01:58:19.937Z,32.47
2018-11-22T02:00:48.573Z,31.10
2018-11-22T02:03:36.836Z,32.27
2018-11-22T02:06:05.482Z,31.73
2018-11-22T02:08:34.190Z,33.20
2018-11-22T02:11:02.794Z,30.83
2018-11-22T02:13:51.075Z,34.07
2018-11-22T02:16:19.766Z,33.23
2018-11-22T02:18:48.442Z,33.37
2018-11-22T02:21:17.081Z,31.90
2018-11-22T02:24:05.503Z,32.43
2018-11-22T02:26:34.233Z,32.13
2018-11-22T02:29:02.892Z,32.17
2018-11-22T02:31:31.564Z,34.07
2018-11-22T02:34:19.849Z,30.50
2018-11-22T02:36:48.538Z,30.70
2018-11-22T02:39:17.220Z,31.67
2018-11-22T02:41:45.878Z,31.63
2018-11-22T02:44:34.168Z,32.07
2018-11-22T02:47:02.828Z,29.40
2018-11-22T02:49:31.426Z,29.10
2018-11-22T02:52:00.127Z,32.37
2018-11-22T02:54:48.479Z,31.63
2018-11-22T02:57:17.082Z,31.03
2018-11-22T02:59:45.714Z,31.60
2018-11-22T03:02:14.417Z,31.87
2018-11-22T03:05:02.637Z,31.17
2018-11-22T03:07:31.404Z,31.70
2018-11-22T03:10:00.089Z,31.10
2018-11-22T03:12:28.749Z,30.93
2018-11-22T03:15:17.032Z,33.20
2018-11-22T03:17:45.700Z,32.13
2018-11-22T03:20:14.402Z,30.00
2018-11-22T03:22:43.925Z,32.00
2018-11-22T03:25:32.222Z,33.10
2018-11-22T03:28:00.957Z,31.07
2018-11-22T03:30:29.574Z,32.83
2018-11-22T03:32:58.248Z,32.87
2018-11-22T03:35:46.494Z,32.93
2018-11-22T03:38:15.269Z,32.20
2018-11-22T03:40:44.358Z,32.30
2018-11-22T03:43:13.070Z,33.60
2018-11-22T03:46:01.329Z,31.43
2018-11-22T03:48:30.070Z,31.00
2018-11-22T03:50:58.693Z,31.33
2018-11-22T03:53:27.321Z,31.30
2018-11-22T03:56:15.324Z,32.93
2018-11-22T03:58:43.986Z,32.07
2018-11-22T04:01:12.714Z,31.80
2018-11-22T04:04:00.942Z,31.57
2018-11-22T04:06:29.703Z,31.07
2018-11-22T04:08:58.415Z,30.93
2018-11-22T04:11:27.090Z,28.67
2018-11-22T04:14:15.307Z,30.10
2018-11-22T04:16:44.002Z,31.03
2018-11-22T04:19:12.639Z,30.87
2018-11-22T04:22:00.584Z,33.07
2018-11-22T04:24:29.279Z,34.17
2018-11-22T04:26:57.947Z,33.93
2018-11-22T04:29:28.937Z,33.27
2018-11-22T04:32:17.188Z,31.53
2018-11-22T04:34:45.887Z,33.70
2018-11-22T04:37:14.631Z,33.97
2018-11-22T04:39:43.279Z,32.03
2018-11-22T04:42:31.555Z,32.37
2018-11-22T04:45:00.200Z,32.87
2018-11-22T04:47:28.836Z,34.40
2018-11-22T04:49:57.504Z,32.47
2018-11-22T04:52:45.776Z,32.40
2018-11-22T04:55:14.474Z,33.03
2018-11-22T04:57:43.123Z,33.60
2018-11-22T05:00:17.014Z,34.33
2018-11-22T05:02:45.935Z,35.87
2018-11-22T05:05:33.942Z,36.53
2018-11-22T05:08:02.569Z,35.23
2018-11-22T05:10:31.269Z,35.60
2018-11-22T05:12:59.973Z,35.53
2018-11-22T05:15:48.258Z,35.40
2018-11-22T05:18:17.078Z,34.60
2018-11-22T05:20:45.736Z,34.07
2018-11-22T05:23:14.412Z,32.83
2018-11-22T05:26:02.678Z,33.80
2018-11-22T05:28:31.320Z,32.67
2018-11-22T05:30:59.997Z,32.20
2018-11-22T05:33:28.645Z,33.40
2018-11-22T05:36:16.913Z,34.27
2018-11-22T05:38:45.620Z,30.80
2018-11-22T05:41:14.315Z,31.63
2018-11-22T05:43:43.023Z,31.03
2018-11-22T05:46:31.247Z,31.90
2018-11-22T05:48:59.950Z,32.93
2018-11-22T05:51:28.564Z,32.07
2018-11-22T05:53:57.223Z,32.07
2018-11-22T05:56:45.489Z,31.13
2018-11-22T05:59:14.120Z,33.50
2018-11-22T06:01:42.784Z,29.10
2018-11-22T06:04:11.415Z,29.47
2018-11-22T06:06:59.686Z,29.07
2018-11-22T06:09:28.344Z,28.60
2018-11-22T06:11:57.027Z,28.60
2018-11-22T06:14:25.654Z,29.63
2018-11-22T06:17:14.006Z,31.47
2018-11-22T06:19:42.634Z,29.80
2018-11-22T06:22:11.410Z,30.87
2018-11-22T06:24:40.013Z,32.57
2018-11-22T06:27:28.281Z,31.10
2018-11-22T06:29:56.998Z,30.40
2018-11-22T06:32:25.654Z,32.13
2018-11-22T06:34:54.323Z,30.67
2018-11-22T06:37:42.586Z,28.70
2018-11-22T06:40:13.655Z,28.00
2018-11-22T06:42:42.877Z,30.10
2018-11-22T06:45:16.748Z,38.37
2018-11-22T06:47:45.444Z,42.77
2018-11-22T06:50:16.878Z,33.23
2018-11-22T06:53:03.282Z,31.73
2018-11-22T06:55:33.538Z,29.20
2018-11-22T06:58:02.249Z,29.97
2018-11-22T07:00:32.129Z,28.97
2018-11-22T07:03:20.384Z,31.47
2018-11-22T07:05:49.124Z,30.20
2018-11-22T07:08:37.014Z,30.13
2018-11-22T07:11:05.935Z,29.03
2018-11-22T07:13:54.129Z,29.57
2018-11-22T07:16:22.885Z,29.13
2018-11-22T07:21:58.687Z,27.50
2018-11-22T07:24:29.826Z,29.20
2018-11-22T07:27:20.135Z,30.63
2018-11-22T07:29:48.956Z,31.60
2018-11-22T07:32:17.539Z,31.43
2018-11-22T07:35:06.995Z,31.03
2018-11-22T07:37:35.688Z,30.97
2018-11-22T07:40:04.687Z,31.83
2018-11-22T07:42:35.551Z,30.30
2018-11-22T07:45:25.432Z,28.30
2018-11-22T07:47:57.985Z,29.70
2018-11-22T07:50:26.748Z,27.87
2018-11-22T07:53:15.035Z,27.80
2018-11-22T07:55:43.692Z,28.73
2018-11-22T07:58:12.355Z,28.27
2018-11-22T08:01:00.644Z,28.03
2018-11-22T08:03:29.358Z,25.13
2018-11-22T08:05:57.982Z,26.37
2018-11-22T08:08:26.675Z,24.60
2018-11-22T08:11:17.641Z,25.47
2018-11-22T08:13:46.365Z,25.70
2018-11-22T08:16:15.034Z,25.80
2018-11-22T08:18:45.503Z,25.27
2018-11-22T08:21:38.242Z,26.50
2018-11-22T08:24:02.482Z,26.33
2018-11-22T08:26:31.188Z,25.47
2018-11-22T08:28:59.878Z,27.43
2018-11-22T08:31:48.126Z,25.53
2018-11-22T08:34:16.937Z,26.00
2018-11-22T08:36:45.601Z,26.90
2018-11-22T08:39:14.235Z,26.47
2018-11-22T08:42:12.995Z,24.77
2018-11-22T08:44:43.790Z,24.27
2018-11-22T08:47:51.372Z,27.80
2018-11-22T08:50:38.988Z,26.27
2018-11-22T08:53:07.704Z,25.13
2018-11-22T08:55:55.714Z,25.57
2018-11-22T08:58:27.180Z,25.50
2018-11-22T09:00:58.751Z,26.63
2018-11-22T09:04:05.924Z,26.87
2018-11-22T09:06:53.984Z,26.03
2018-11-22T09:09:24.015Z,24.20
2018-11-22T09:12:12.225Z,24.57
2018-11-22T09:14:59.908Z,23.80
2018-11-22T09:17:29.084Z,26.00
2018-11-22T09:20:37.314Z,27.53
2018-11-22T09:23:05.931Z,27.77
2018-11-22T09:25:37.304Z,26.40
2018-11-22T09:28:45.013Z,27.97
2018-11-22T09:31:13.701Z,34.17
2018-11-22T09:33:42.377Z,27.13
2018-11-22T09:36:30.610Z,27.67
2018-11-22T09:38:59.724Z,28.97
2018-11-22T09:41:28.388Z,29.30
2018-11-22T09:44:16.582Z,26.33
2018-11-22T09:46:45.270Z,27.50
2018-11-22T09:49:16.405Z,30.37
2018-11-22T09:51:45.200Z,28.47
2018-11-22T09:57:21.096Z,27.47
2018-11-22T09:59:49.770Z,32.43
2018-11-22T10:02:38.039Z,26.83
2018-11-22T10:05:09.617Z,26.00
2018-11-22T10:07:38.057Z,27.13
2018-11-22T10:10:08.255Z,27.27
2018-11-22T10:12:56.566Z,25.40
2018-11-22T10:15:27.237Z,23.73
2018-11-22T10:17:55.923Z,23.43
2018-11-22T10:20:25.716Z,25.07
2018-11-22T10:23:13.956Z,25.30
2018-11-22T10:25:42.684Z,27.00
2018-11-22T10:28:11.388Z,27.90
2018-11-22T10:30:40.032Z,28.77
2018-11-22T10:33:28.284Z,28.93
2018-11-22T10:35:56.961Z,28.60
2018-11-22T10:38:26.221Z,28.47
2018-11-22T10:40:54.864Z,35.33
2018-11-22T10:43:43.102Z,41.43
2018-11-22T10:46:11.861Z,36.43
2018-11-22T10:48:43.223Z,34.73
2018-11-22T10:54:18.922Z,30.10
2018-11-22T10:57:06.925Z,30.10
2018-11-22T10:59:36.059Z,27.47
2018-11-22T11:02:43.024Z,27.90
2018-11-22T11:05:30.716Z,28.20
2018-11-22T11:08:01.605Z,26.37
2018-11-22T11:10:51.050Z,28.57
2018-11-22T11:13:19.772Z,25.70
2018-11-22T11:15:48.397Z,26.50
2018-11-22T11:18:16.998Z,25.30
2018-11-22T11:23:34.112Z,25.53
2018-11-22T11:26:02.805Z,24.77
2018-11-22T11:28:51.088Z,27.40
2018-11-22T11:31:19.746Z,24.90
2018-11-22T11:33:48.374Z,25.37
2018-11-22T11:36:36.496Z,26.70
2018-11-22T11:39:08.171Z,36.93
2018-11-22T11:41:39.781Z,53.87
2018-11-22T11:44:46.968Z,30.67
2018-11-22T11:47:18.601Z,28.03
2018-11-22T11:49:45.494Z,27.63
2018-11-22T11:52:33.753Z,28.50
2018-11-22T11:55:02.450Z,28.87
2018-11-22T11:57:31.249Z,27.63
2018-11-22T11:59:59.936Z,28.60
2018-11-22T12:02:50.211Z,28.83
2018-11-22T12:05:19.980Z,28.23
2018-11-22T12:07:51.010Z,28.13
2018-11-22T12:10:39.263Z,26.40
2018-11-22T12:13:08.082Z,28.47
2018-11-22T12:15:36.780Z,28.33
2018-11-22T12:18:05.563Z,28.10
2018-11-22T12:20:54.048Z,27.83
2018-11-22T12:23:22.718Z,28.67
2018-11-22T12:25:51.402Z,28.63
2018-11-22T12:28:20.037Z,28.70
2018-11-22T12:31:08.348Z,29.50
2018-11-22T12:33:42.766Z,29.60
2018-11-22T12:36:33.758Z,28.27
2018-11-22T12:39:02.489Z,27.53
2018-11-22T12:41:31.137Z,28.13
2018-11-22T12:44:26.045Z,27.50
2018-11-22T12:46:56.050Z,28.90
2018-11-22T12:49:24.751Z,28.17
2018-11-22T12:52:14.132Z,28.40
2018-11-22T12:54:42.029Z,28.33
2018-11-22T12:57:10.795Z,27.27
2018-11-22T12:59:39.376Z,27.47
2018-11-22T13:02:27.706Z,27.40
2018-11-22T13:04:56.391Z,28.33
2018-11-22T13:07:47.327Z,27.27
2018-11-22T13:10:17.707Z,28.40
2018-11-22T13:12:47.503Z,27.93
2018-11-22T13:15:37.803Z,27.33
2018-11-22T13:18:06.612Z,26.93
2018-11-22T13:20:35.369Z,27.77
2018-11-22T13:23:23.613Z,28.63
2018-11-22T13:25:52.313Z,27.33
2018-11-22T13:28:21.028Z,27.90
2018-11-22T13:30:50.102Z,27.47
2018-11-22T13:33:38.339Z,29.03
2018-11-22T13:36:07.114Z,27.17
2018-11-22T13:38:35.706Z,27.30
2018-11-22T13:41:06.918Z,26.13
2018-11-22T13:43:55.133Z,25.47
2018-11-22T13:49:14.524Z,25.43
2018-11-22T13:52:02.731Z,26.73
2018-11-22T13:54:31.423Z,27.60
2018-11-22T13:57:00.105Z,27.50
2018-11-22T13:59:48.275Z,27.33
2018-11-22T14:05:26.040Z,27.97
2018-11-22T14:08:32.981Z,28.57
2018-11-22T14:11:01.696Z,26.73
2018-11-22T14:13:32.024Z,27.77
2018-11-22T14:16:20.332Z,25.73
2018-11-22T14:18:52.997Z,26.00
2018-11-22T14:21:22.019Z,27.07
2018-11-22T14:24:10.296Z,27.97
2018-11-22T14:27:03.376Z,28.67
2018-11-22T14:29:32.182Z,28.17
2018-11-22T14:32:20.538Z,28.50
2018-11-22T14:35:00.541Z,27.47
2018-11-22T14:37:27.901Z,28.47
2018-11-22T14:40:19.684Z,27.90
2018-11-22T14:42:49.257Z,27.80
2018-11-22T14:45:18.006Z,26.53
2018-11-22T14:48:06.125Z,27.30
2018-11-22T14:50:54.957Z,29.33
2018-11-22T14:53:23.755Z,27.57
2018-11-22T14:56:11.725Z,27.20
2018-11-22T14:59:18.986Z,27.73
2018-11-22T15:01:47.677Z,27.63
2018-11-22T15:04:38.496Z,27.67
2018-11-22T15:07:10.029Z,26.93
2018-11-22T15:09:38.677Z,26.87
2018-11-22T15:12:26.931Z,25.73
2018-11-22T15:15:16.574Z,28.23
2018-11-22T15:17:48.098Z,27.53
2018-11-22T15:20:36.365Z,25.97
2018-11-22T15:23:05.136Z,27.00
2018-11-22T15:25:33.742Z,25.27
2018-11-22T15:28:02.418Z,27.77
2018-11-22T15:30:50.674Z,26.87
2018-11-22T15:33:19.406Z,27.60
2018-11-22T15:35:48.050Z,27.77
2018-11-22T15:38:16.721Z,27.83
2018-11-22T15:41:05.144Z,27.43
2018-11-22T15:43:46.385Z,27.50
2018-11-22T15:46:17.561Z,27.13
2018-11-22T15:49:05.755Z,25.93
2018-11-22T15:51:34.493Z,22.30
2018-11-22T15:54:03.183Z,21.33
2018-11-22T15:56:51.435Z,18.70
2018-11-22T15:59:20.108Z,17.20
2018-11-22T16:01:50.989Z,14.87
2018-11-22T16:04:19.633Z,15.17
2018-11-22T16:07:07.860Z,14.00
2018-11-22T16:09:36.542Z,12.63
2018-11-22T16:12:44.320Z,10.43
2018-11-22T16:15:37.708Z,11.10
2018-11-22T16:18:06.703Z,11.47
2018-11-22T16:20:54.970Z,11.60
2018-11-22T16:23:25.835Z,9.33
2018-11-22T16:25:54.469Z,10.30
2018-11-22T16:28:23.164Z,10.60
2018-11-22T16:31:11.485Z,9.70
2018-11-22T16:33:40.160Z,10.77
2018-11-22T16:39:08.988Z,10.30
2018-11-22T16:44:27.891Z,9.23
2018-11-22T16:47:15.829Z,9.93
2018-11-22T16:49:44.587Z,9.53
2018-11-22T16:52:13.188Z,9.40
2018-11-22T16:55:24.457Z,9.40
2018-11-22T16:57:56.716Z,9.63
2018-11-22T17:00:27.239Z,9.97
2018-11-22T17:03:15.493Z,9.10
2018-11-22T17:05:45.011Z,9.03
2018-11-22T17:08:16.182Z,9.27
2018-11-22T17:10:44.837Z,8.47
2018-11-22T17:13:33.127Z,9.80
2018-11-22T17:16:02.056Z,9.10
2018-11-22T17:18:52.810Z,9.30
2018-11-22T17:21:19.691Z,8.80
2018-11-22T17:23:48.370Z,9.70
2018-11-22T17:26:36.606Z,9.37
2018-11-22T17:29:05.379Z,9.37
2018-11-22T17:31:36.506Z,9.13
2018-11-22T17:34:07.664Z,10.33
2018-11-22T17:36:55.965Z,11.43
2018-11-22T17:42:12.641Z,10.93
2018-11-22T17:45:04.379Z,10.30
2018-11-22T17:47:31.851Z,10.93
2018-11-22T17:50:00.418Z,10.37
2018-11-22T17:52:48.873Z,10.57
2018-11-22T17:58:24.624Z,9.33
2018-11-22T18:01:31.856Z,9.23
2018-11-22T18:04:03.635Z,12.83
2018-11-22T18:06:34.802Z,12.93
2018-11-22T18:09:23.094Z,13.00
2018-11-22T18:14:53.315Z,10.87
2018-11-22T18:17:41.334Z,10.77
2018-11-22T18:20:30.456Z,10.13
2018-11-22T18:26:20.162Z,7.20
2018-11-22T18:28:48.891Z,5.87
2018-11-22T18:31:39.278Z,6.47
2018-11-22T18:34:07.950Z,5.50
2018-11-22T18:36:36.636Z,5.10
2018-11-22T18:39:07.858Z,5.47
2018-11-22T18:41:56.110Z,5.60
2018-11-22T18:44:24.877Z,5.80
2018-11-22T18:46:53.516Z,5.27
2018-11-22T18:49:22.200Z,6.00
2018-11-22T18:52:10.402Z,6.20
2018-11-22T18:54:54.920Z,6.17
2018-11-22T18:57:23.622Z,7.07
2018-11-22T19:00:35.206Z,6.23
2018-11-22T19:03:05.530Z,6.20
2018-11-22T19:05:34.283Z,5.97
2018-11-22T19:08:23.673Z,5.33
2018-11-22T19:10:51.187Z,5.80
2018-11-22T19:16:19.185Z,5.60
2018-11-22T19:19:06.830Z,6.40
2018-11-22T19:21:40.974Z,6.73
2018-11-22T19:24:06.818Z,6.53
2018-11-22T19:26:35.660Z,7.17
2018-11-22T19:29:04.287Z,8.03
2018-11-22T19:31:52.518Z,6.97
2018-11-22T19:34:21.217Z,6.80
2018-11-22T19:36:49.847Z,6.67
2018-11-22T19:39:38.144Z,6.97
2018-11-22T19:42:06.862Z,6.27
2018-11-22T19:44:38.287Z,6.37
2018-11-22T19:47:26.679Z,7.17
2018-11-22T19:50:18.937Z,7.30
2018-11-22T19:52:48.456Z,7.97
2018-11-22T19:55:37.504Z,9.27
2018-11-22T19:58:10.104Z,9.40
2018-11-22T20:00:37.617Z,9.33
2018-11-22T20:03:28.534Z,8.30
2018-11-22T20:05:59.741Z,8.13
2018-11-22T20:08:28.436Z,8.10
2018-11-22T20:11:18.286Z,8.03
2018-11-22T20:13:46.941Z,7.37
2018-11-22T20:16:15.809Z,8.80
2018-11-22T20:18:46.840Z,8.77
2018-11-22T20:21:36.276Z,8.27
2018-11-22T20:24:03.941Z,8.40
2018-11-22T20:26:52.253Z,7.40
2018-11-22T20:29:21.193Z,7.13
2018-11-22T20:32:09.106Z,8.07
2018-11-22T20:34:48.012Z,7.80
2018-11-22T20:37:16.774Z,7.63
2018-11-22T20:40:05.014Z,7.47
2018-11-22T20:48:13.034Z,7.47
2018-11-22T20:50:41.706Z,7.97
2018-11-22T20:53:32.049Z,7.63
2018-11-22T20:55:59.778Z,7.27
2018-11-22T20:58:46.965Z,7.77
2018-11-22T21:01:15.690Z,7.37
2018-11-22T21:03:44.325Z,7.90
2018-11-22T21:06:13.088Z,7.67
2018-11-22T21:09:01.355Z,8.13
2018-11-22T21:11:29.985Z,7.50
2018-11-22T21:13:58.676Z,7.97
2018-11-22T21:19:34.548Z,9.70
2018-11-22T21:22:03.275Z,9.50
2018-11-22T21:24:51.530Z,9.23
2018-11-22T21:27:20.156Z,8.73
2018-11-22T21:29:48.795Z,8.67
2018-11-22T21:32:17.445Z,8.93
2018-11-22T21:35:08.751Z,8.90
2018-11-22T21:37:57.621Z,8.40
2018-11-22T21:40:26.897Z,8.57
2018-11-22T21:43:34.158Z,8.23
2018-11-22T21:46:21.849Z,8.80
2018-11-22T21:48:50.501Z,9.10
2018-11-22T21:51:39.507Z,7.80
2018-11-22T21:54:07.118Z,9.50
2018-11-22T21:56:35.773Z,9.13
2018-11-22T21:59:24.025Z,8.23
2018-11-22T22:04:59.677Z,8.90
2018-11-22T22:08:07.029Z,9.43
2018-11-22T22:10:35.789Z,8.57
2018-11-22T22:13:04.508Z,9.00
2018-11-22T22:15:52.767Z,8.60
2018-11-22T22:18:21.434Z,9.17
2018-11-22T22:20:50.079Z,8.77
2018-11-22T22:23:20.920Z,9.37
2018-11-22T22:26:09.205Z,9.13
2018-11-22T22:28:37.907Z,8.53
2018-11-22T22:31:06.600Z,8.40
2018-11-22T22:33:37.818Z,8.67
2018-11-22T22:36:26.048Z,8.73
2018-11-22T22:38:54.826Z,8.90
2018-11-22T22:41:23.487Z,8.63
2018-11-22T22:43:52.156Z,8.77
2018-11-22T22:46:47.925Z,9.47
2018-11-22T22:49:18.737Z,8.70
2018-11-22T22:51:51.936Z,8.67
2018-11-22T22:54:42.213Z,8.80
2018-11-22T22:57:10.924Z,8.93
2018-11-22T22:59:39.572Z,8.93
2018-11-22T23:02:27.826Z,8.40
2018-11-22T23:04:56.442Z,8.23
2018-11-22T23:07:25.148Z,8.67
2018-11-22T23:10:13.113Z,8.73
2018-11-22T23:12:41.744Z,8.20
2018-11-22T23:15:13.068Z,7.93
2018-11-22T23:17:42.070Z,8.87
2018-11-22T23:20:49.254Z,8.03
2018-11-22T23:23:17.895Z,8.27
2018-11-22T23:25:46.566Z,8.80
2018-11-22T23:28:34.828Z,8.37
2018-11-22T23:31:03.514Z,8.63
2018-11-22T23:33:32.197Z,8.57
2018-11-22T23:36:00.867Z,8.77
2018-11-22T23:38:49.095Z,8.70
2018-11-22T23:41:17.813Z,9.83
2018-11-22T23:43:46.559Z,8.73
2018-11-22T23:46:15.231Z,8.97
2018-11-22T23:49:03.234Z,8.20
2018-11-22T23:51:31.938Z,8.67
2018-11-22T23:54:00.687Z,8.37
2018-11-22T23:56:48.971Z,8.07
2018-11-22T23:59:17.662Z,9.40
